Terminal Aerodrome Forecast
Issued by NWS

Home | Current Version | Previous Version | Text Only | Print | Product List | Glossary On
Versions: 1 2 3 4 5 6 7 8 9 10 11 12 13 14
316
FTUS46 KSGX 262153 AAB
TAFCRQ
TAF AMD
KCRQ 262153Z 2622/2718 10012G18KT P6SM SKC
     FM262330 27008KT P6SM SCT150 WS010/09020KT
     FM270130 VRB05KT P6SM BKN150 WS010/09020KT=

USA.gov is the U.S. government's official web portal to all federal, state and local government web resources and services.